createdAt,value
2018-06-02T00:02:14.524Z,39
2018-06-02T00:12:14.544Z,45
2018-06-02T00:23:25.286Z,43
2018-06-02T00:32:27.769Z,44
2018-06-02T00:42:14.503Z,45
2018-06-02T00:52:14.621Z,45
2018-06-02T01:02:14.534Z,65
2018-06-02T01:12:14.594Z,71
2018-06-02T01:22:14.525Z,75
2018-06-02T01:32:14.466Z,71
2018-06-02T01:42:14.553Z,67
2018-06-02T01:52:14.572Z,65
2018-06-02T02:02:14.587Z,63
2018-06-02T02:12:14.590Z,77
2018-06-02T02:22:14.508Z,78
2018-06-02T02:32:14.594Z,84
2018-06-02T02:42:14.579Z,88
2018-06-02T02:52:14.595Z,83
2018-06-02T03:02:14.571Z,76
2018-06-02T03:12:14.499Z,69
2018-06-02T03:22:14.586Z,63
2018-06-02T03:32:14.565Z,50
2018-06-02T03:42:14.526Z,41
2018-06-02T03:52:14.590Z,38
2018-06-02T04:02:14.517Z,37
2018-06-02T04:12:14.582Z,38
2018-06-02T04:22:14.562Z,36
2018-06-02T04:32:14.524Z,34
2018-06-02T04:42:14.579Z,30
2018-06-02T04:52:14.543Z,30
2018-06-02T05:02:14.535Z,29
2018-06-02T05:12:14.563Z,31
2018-06-02T05:22:14.512Z,26
2018-06-02T05:32:14.591Z,29
2018-06-02T05:42:14.539Z,33
2018-06-02T05:52:14.490Z,32
2018-06-02T06:02:14.597Z,32
2018-06-02T06:12:14.579Z,30
2018-06-02T06:22:14.581Z,32
2018-06-02T06:32:14.570Z,37
2018-06-02T06:42:14.545Z,36
2018-06-02T06:52:14.595Z,37
2018-06-02T07:02:14.551Z,37
2018-06-02T07:12:14.589Z,34
2018-06-02T07:22:14.552Z,33
2018-06-02T07:32:14.574Z,35
2018-06-02T07:42:14.628Z,36
2018-06-02T07:52:47.453Z,43
2018-06-02T08:02:14.591Z,38
2018-06-02T08:12:14.682Z,44
2018-06-02T08:22:14.704Z,42
2018-06-02T08:32:14.680Z,36
2018-06-02T08:42:14.617Z,42
2018-06-02T08:52:14.637Z,42
2018-06-02T09:02:14.550Z,42
2018-06-02T09:12:18.680Z,42
2018-06-02T09:22:14.591Z,41
2018-06-02T09:32:14.647Z,38
2018-06-02T09:42:14.649Z,34
2018-06-02T09:52:14.582Z,32
2018-06-02T10:02:14.583Z,31
2018-06-02T10:12:14.624Z,28
2018-06-02T10:22:14.616Z,34
2018-06-02T10:32:14.632Z,27
2018-06-02T10:42:16.812Z,26
2018-06-02T10:52:14.612Z,31
2018-06-02T11:02:14.686Z,33
2018-06-02T11:12:14.549Z,32
2018-06-02T11:22:14.632Z,32
2018-06-02T11:32:15.136Z,34
2018-06-02T11:42:14.627Z,38
2018-06-02T11:52:14.635Z,32
2018-06-02T12:02:15.918Z,33
2018-06-02T12:12:14.672Z,33
2018-06-02T12:22:14.620Z,30
2018-06-02T12:32:14.659Z,27
2018-06-02T12:42:16.013Z,26
2018-06-02T12:52:14.556Z,23
2018-06-02T13:02:14.602Z,21
2018-06-02T13:12:14.617Z,21
2018-06-02T13:22:14.668Z,22
2018-06-02T13:32:14.928Z,21
2018-06-02T13:42:15.460Z,24
2018-06-02T13:52:14.703Z,21
2018-06-02T14:02:14.942Z,21
2018-06-02T14:12:15.452Z,23
2018-06-02T14:22:14.770Z,17
2018-06-02T14:32:14.757Z,19
2018-06-02T14:42:17.488Z,15
2018-06-02T14:52:14.776Z,15
2018-06-02T15:02:15.056Z,15
2018-06-02T15:12:14.702Z,20
2018-06-02T15:22:21.228Z,19
2018-06-02T15:32:14.694Z,19
2018-06-02T15:42:15.263Z,19
2018-06-02T15:52:14.818Z,18
2018-06-02T16:02:14.813Z,21
2018-06-02T16:12:14.787Z,18
2018-06-02T16:22:14.716Z,17
2018-06-02T16:32:14.593Z,16
2018-06-02T16:42:14.767Z,17
2018-06-02T16:52:14.758Z,17
2018-06-02T17:02:14.640Z,19
2018-06-02T17:12:15.719Z,19
2018-06-02T17:22:16.797Z,19
2018-06-02T17:32:14.791Z,19
2018-06-02T17:42:14.663Z,18
2018-06-02T17:52:15.789Z,20
2018-06-02T18:02:18.329Z,18
2018-06-02T18:12:15.699Z,17
2018-06-02T18:22:14.726Z,16
2018-06-02T18:32:14.712Z,18
2018-06-02T18:42:14.633Z,19
2018-06-02T18:52:14.773Z,19
2018-06-02T19:02:14.640Z,19
2018-06-02T19:12:14.695Z,19
2018-06-02T19:22:15.783Z,21
2018-06-02T19:32:14.686Z,20
2018-06-02T19:42:14.753Z,19
2018-06-02T19:52:15.721Z,22
2018-06-02T20:02:14.746Z,22
2018-06-02T20:12:16.692Z,23
2018-06-02T20:22:15.797Z,24
2018-06-02T20:32:14.746Z,23
2018-06-02T20:42:19.019Z,23
2018-06-02T20:52:15.684Z,27
2018-06-02T21:02:14.724Z,26
2018-06-02T21:12:15.777Z,24
2018-06-02T21:22:14.732Z,25
2018-06-02T21:32:14.677Z,29
2018-06-02T21:42:19.611Z,28
2018-06-02T21:52:15.818Z,28
2018-06-02T22:02:17.816Z,30
2018-06-02T22:12:20.405Z,30
2018-06-02T22:22:14.721Z,30
2018-06-02T22:32:14.737Z,31
2018-06-02T22:42:15.790Z,32
2018-06-02T22:52:14.801Z,29
2018-06-02T23:02:14.714Z,32
2018-06-02T23:12:14.732Z,34
2018-06-02T23:22:15.114Z,32
2018-06-02T23:32:15.066Z,33
2018-06-02T23:42:14.694Z,34
2018-06-02T23:52:14.754Z,33
